Time;durP1;ratioP1;P1;durP2;ratioP2;P2;SDS_P1;SDS_P2;PMS_P1;PMS_P2;Temp;Humidity;BMP_temperature;BMP_pressure;BME280_temperature;BME280_humidity;BME280_pressure;Samples;Min_cycle;Max_cycle;Signal;HPM_P1;HPM_P2
2022/02/13 00:01:51;;;;;;;7.80;5.97;;;;;;;;;;5033924;28;20065;-71
2022/02/13 00:04:19;;;;;;;6.70;5.55;;;;;;;;;;5033860;28;20037;-70
2022/02/13 00:06:51;;;;;;;8.38;5.82;;;;;;;;;;5034527;28;20124;-70
2022/02/13 00:09:18;;;;;;;8.98;6.30;;;;;;;;;;5034053;28;20038;-71
2022/02/13 00:11:46;;;;;;;8.60;5.95;;;;;;;;;;5034234;28;20045;-73
2022/02/13 00:14:14;;;;;;;8.98;6.18;;;;;;;;;;5033906;28;20048;-71
2022/02/13 00:16:41;;;;;;;8.27;5.97;;;;;;;;;;5033190;28;20050;-72
2022/02/13 00:19:11;;;;;;;11.25;6.32;;;;;;;;;;5033461;28;20057;-73
2022/02/13 00:21:50;;;;;;;8.70;5.93;;;;;;;;;;5033415;28;20041;-72
2022/02/13 00:24:17;;;;;;;8.02;5.68;;;;;;;;;;5033630;28;20037;-71
2022/02/13 00:26:45;;;;;;;8.20;5.72;;;;;;;;;;5033732;28;20051;-72
2022/02/13 00:29:13;;;;;;;7.45;5.45;;;;;;;;;;5033192;28;20037;-70
2022/02/13 00:31:41;;;;;;;11.45;6.32;;;;;;;;;;5033747;28;20037;-72
2022/02/13 00:34:11;;;;;;;9.73;5.43;;;;;;;;;;5033315;28;20045;-70
2022/02/13 00:36:39;;;;;;;6.63;5.60;;;;;;;;;;5033478;28;20041;-70
2022/02/13 00:39:06;;;;;;;8.15;5.75;;;;;;;;;;5033572;28;20120;-70
2022/02/13 00:41:34;;;;;;;7.30;5.72;;;;;;;;;;5032952;28;20155;-70
2022/02/13 00:44:02;;;;;;;6.35;5.28;;;;;;;;;;5033365;28;20385;-72
2022/02/13 00:46:30;;;;;;;7.70;5.78;;;;;;;;;;5033164;28;20034;-71
2022/02/13 00:48:59;;;;;;;7.00;5.07;;;;;;;;;;5033480;28;20077;-72
2022/02/13 00:51:27;;;;;;;11.98;5.28;;;;;;;;;;5015240;28;20359;-72
2022/02/13 00:53:55;;;;;;;5.70;5.00;;;;;;;;;;5032842;28;20508;-71
2022/02/13 00:56:22;;;;;;;6.78;5.15;;;;;;;;;;5033440;28;20071;-70
2022/02/13 00:58:51;;;;;;;8.70;5.53;;;;;;;;;;5032663;28;20144;-72
2022/02/13 01:01:19;;;;;;;8.15;5.13;;;;;;;;;;5033005;28;20465;-71
2022/02/13 01:03:47;;;;;;;6.78;5.10;;;;;;;;;;5032948;28;20551;-72
2022/02/13 01:06:15;;;;;;;7.50;5.35;;;;;;;;;;5031030;28;20048;-72
2022/02/13 01:08:42;;;;;;;10.10;5.28;;;;;;;;;;5004768;28;20033;-72
2022/02/13 01:11:10;;;;;;;8.38;5.30;;;;;;;;;;5052511;28;20435;-71
2022/02/13 01:13:38;;;;;;;7.50;5.40;;;;;;;;;;5035165;28;20651;-71
2022/02/13 01:16:05;;;;;;;7.50;5.30;;;;;;;;;;5052384;28;20045;-71
2022/02/13 01:18:34;;;;;;;7.43;5.35;;;;;;;;;;5052387;28;20048;-71
2022/02/13 01:21:03;;;;;;;6.90;5.40;;;;;;;;;;5052411;28;20040;-72
2022/02/13 01:23:30;;;;;;;5.55;5.05;;;;;;;;;;5052594;28;20043;-73
2022/02/13 01:26:00;;;;;;;6.50;5.10;;;;;;;;;;5052259;28;20045;-71
2022/02/13 01:28:30;;;;;;;7.68;4.75;;;;;;;;;;5034976;28;20375;-70
2022/02/13 01:31:02;;;;;;;5.70;4.72;;;;;;;;;;5051558;28;20124;-72
2022/02/13 01:33:31;;;;;;;9.10;5.38;;;;;;;;;;5052337;28;20412;-70
2022/02/13 01:35:59;;;;;;;7.68;5.03;;;;;;;;;;5017560;28;20490;-70
2022/02/13 01:38:27;;;;;;;5.15;4.63;;;;;;;;;;5012682;28;20056;-71
2022/02/13 01:40:55;;;;;;;7.22;5.03;;;;;;;;;;5012122;28;20405;-72
2022/02/13 01:43:23;;;;;;;6.93;4.50;;;;;;;;;;5012678;28;20042;-72
2022/02/13 01:45:50;;;;;;;6.07;4.53;;;;;;;;;;5012667;28;20125;-73
2022/02/13 01:48:18;;;;;;;6.93;4.38;;;;;;;;;;5012351;28;20528;-71
2022/02/13 01:50:48;;;;;;;7.22;4.50;;;;;;;;;;4994298;28;20072;-70
2022/02/13 01:53:35;;;;;;;6.30;4.20;;;;;;;;;;5012131;28;20404;-71
2022/02/13 01:56:03;;;;;;;6.47;4.40;;;;;;;;;;5012652;28;20125;-71
2022/02/13 01:58:32;;;;;;;6.78;4.57;;;;;;;;;;5012606;28;20429;-71
2022/02/13 02:00:59;;;;;;;6.15;4.30;;;;;;;;;;5012460;28;20068;-71
2022/02/13 02:03:27;;;;;;;5.68;4.15;;;;;;;;;;4995322;28;20209;-70
2022/02/13 02:05:55;;;;;;;4.95;4.35;;;;;;;;;;4994806;28;20117;-72
2022/02/13 02:08:22;;;;;;;6.60;4.25;;;;;;;;;;5012681;28;20187;-70
2022/02/13 02:10:52;;;;;;;6.57;4.47;;;;;;;;;;5012637;28;20452;-70
2022/02/13 02:13:19;;;;;;;6.47;4.35;;;;;;;;;;5012671;28;20122;-71
2022/02/13 02:15:48;;;;;;;6.88;4.60;;;;;;;;;;5012632;28;20042;-73
2022/02/13 02:18:16;;;;;;;4.72;4.20;;;;;;;;;;5012381;28;20382;-72
2022/02/13 02:20:44;;;;;;;4.40;4.00;;;;;;;;;;5012106;28;20042;-70
2022/02/13 02:23:12;;;;;;;5.15;4.40;;;;;;;;;;5012369;28;20049;-72
2022/02/13 02:25:40;;;;;;;5.57;4.97;;;;;;;;;;5014998;28;20133;-71
2022/02/13 02:28:07;;;;;;;6.35;4.63;;;;;;;;;;5014548;28;20068;-71
2022/02/13 02:30:38;;;;;;;7.90;4.85;;;;;;;;;;4994618;28;20042;-72
2022/02/13 02:33:05;;;;;;;6.68;4.78;;;;;;;;;;5012867;28;20046;-72
2022/02/13 02:35:32;;;;;;;6.07;4.18;;;;;;;;;;5012251;28;20125;-70
2022/02/13 02:38:00;;;;;;;5.00;4.00;;;;;;;;;;5012220;28;20056;-71
2022/02/13 02:40:27;;;;;;;7.90;4.70;;;;;;;;;;5011844;28;20048;-71
2022/02/13 02:42:55;;;;;;;7.88;4.55;;;;;;;;;;5014166;28;20149;-70
2022/02/13 02:45:23;;;;;;;6.30;4.47;;;;;;;;;;5015719;28;20038;-72
2022/02/13 02:47:51;;;;;;;5.40;4.05;;;;;;;;;;5015900;28;20038;-72
2022/02/13 02:50:18;;;;;;;8.32;4.20;;;;;;;;;;4998727;28;20049;-72
2022/02/13 02:52:46;;;;;;;5.93;3.90;;;;;;;;;;5015053;28;20080;-71
2022/02/13 02:55:14;;;;;;;6.55;4.70;;;;;;;;;;4998022;28;20042;-72
2022/02/13 02:57:41;;;;;;;5.85;4.40;;;;;;;;;;5015241;28;20042;-70
2022/02/13 03:00:10;;;;;;;8.27;4.65;;;;;;;;;;5015317;28;20065;-71
2022/02/13 03:02:38;;;;;;;4.97;4.22;;;;;;;;;;5015685;28;20046;-72
2022/02/13 03:05:07;;;;;;;8.80;4.22;;;;;;;;;;4997480;28;20339;-70
2022/02/13 03:07:34;;;;;;;5.18;4.40;;;;;;;;;;4998130;28;20066;-71
2022/02/13 03:10:02;;;;;;;7.63;4.80;;;;;;;;;;5015719;28;20046;-72
2022/02/13 03:12:31;;;;;;;5.32;4.13;;;;;;;;;;5015391;28;20046;-72
2022/02/13 03:14:59;;;;;;;4.63;4.00;;;;;;;;;;5015320;28;20464;-70
2022/02/13 03:17:26;;;;;;;7.85;4.63;;;;;;;;;;5014912;28;20057;-71
2022/02/13 03:19:54;;;;;;;6.57;4.85;;;;;;;;;;5014967;28;20038;-70
2022/02/13 03:22:21;;;;;;;5.57;4.00;;;;;;;;;;5014852;28;20042;-70
2022/02/13 03:24:58;;;;;;;6.95;4.53;;;;;;;;;;5014971;28;20049;-72
2022/02/13 03:27:26;;;;;;;6.65;4.57;;;;;;;;;;5015090;28;20494;-72
2022/02/13 03:29:55;;;;;;;8.85;4.25;;;;;;;;;;4996835;28;20466;-72
2022/02/13 03:32:22;;;;;;;5.00;4.50;;;;;;;;;;5014852;28;20048;-72
2022/02/13 03:34:50;;;;;;;6.00;4.20;;;;;;;;;;5014683;28;20073;-72
2022/02/13 03:37:17;;;;;;;5.10;4.28;;;;;;;;;;5014941;28;20038;-70
2022/02/13 03:39:45;;;;;;;5.07;4.47;;;;;;;;;;5014813;28;20049;-70
2022/02/13 03:42:12;;;;;;;4.93;4.28;;;;;;;;;;5014279;28;20048;-72
2022/02/13 03:44:40;;;;;;;5.50;4.35;;;;;;;;;;5014806;28;20042;-69
2022/02/13 03:47:08;;;;;;;4.68;4.03;;;;;;;;;;4997281;28;20053;-70
2022/02/13 03:49:36;;;;;;;5.90;4.55;;;;;;;;;;5014648;28;20048;-71
2022/02/13 03:52:04;;;;;;;6.13;4.97;;;;;;;;;;5014640;28;20042;-71
2022/02/13 03:54:31;;;;;;;4.93;4.22;;;;;;;;;;5013249;28;20136;-72
2022/02/13 03:56:59;;;;;;;7.85;4.97;;;;;;;;;;5014364;28;20128;-72
2022/02/13 03:59:29;;;;;;;6.60;4.85;;;;;;;;;;4997121;28;20128;-72
2022/02/13 04:01:56;;;;;;;6.28;4.78;;;;;;;;;;5014048;28;20049;-72
2022/02/13 04:04:24;;;;;;;6.25;5.13;;;;;;;;;;5014406;28;20038;-71
2022/02/13 04:06:51;;;;;;;7.95;5.43;;;;;;;;;;5014354;28;20049;-72
2022/02/13 04:09:19;;;;;;;9.63;5.35;;;;;;;;;;5014187;28;20049;-73
2022/02/13 04:11:46;;;;;;;7.40;5.15;;;;;;;;;;5014312;28;20423;-73
2022/02/13 04:14:20;;;;;;;5.78;4.88;;;;;;;;;;5013969;28;20046;-71
2022/02/13 04:16:48;;;;;;;7.50;5.47;;;;;;;;;;5013797;28;20042;-72
2022/02/13 04:19:16;;;;;;;5.82;4.72;;;;;;;;;;5006254;28;20108;-70
2022/02/13 04:21:44;;;;;;;8.48;4.53;;;;;;;;;;5013991;28;20037;-71
2022/02/13 04:24:13;;;;;;;5.05;4.40;;;;;;;;;;5013871;28;20050;-71
2022/02/13 04:26:40;;;;;;;4.85;4.43;;;;;;;;;;4996081;28;20141;-71
2022/02/13 04:29:08;;;;;;;6.10;4.10;;;;;;;;;;5013468;28;20034;-72
2022/02/13 04:31:39;;;;;;;6.38;4.40;;;;;;;;;;5014117;28;20137;-70
2022/02/13 04:34:07;;;;;;;5.68;4.50;;;;;;;;;;5013680;28;20042;-70
2022/02/13 04:36:36;;;;;;;6.10;4.28;;;;;;;;;;5013519;28;20038;-72
2022/02/13 04:39:04;;;;;;;6.07;4.53;;;;;;;;;;5013579;28;20124;-70
2022/02/13 04:41:31;;;;;;;6.72;4.40;;;;;;;;;;5013271;28;20041;-70
2022/02/13 04:44:01;;;;;;;5.60;4.38;;;;;;;;;;5013698;28;20046;-72
2022/02/13 04:46:28;;;;;;;6.55;4.60;;;;;;;;;;5013793;28;20089;-70
2022/02/13 04:48:56;;;;;;;5.00;4.50;;;;;;;;;;5013698;28;20065;-71
2022/02/13 04:51:23;;;;;;;4.78;4.28;;;;;;;;;;4996117;28;20048;-72
2022/02/13 04:53:54;;;;;;;8.02;4.72;;;;;;;;;;5013154;28;20069;-70
2022/02/13 04:56:21;;;;;;;7.32;4.75;;;;;;;;;;5013169;28;20046;-72
2022/02/13 04:58:49;;;;;;;6.68;4.63;;;;;;;;;;5013191;28;20061;-70
2022/02/13 05:01:16;;;;;;;7.53;4.63;;;;;;;;;;5005391;28;20478;-72
2022/02/13 05:03:44;;;;;;;6.38;4.38;;;;;;;;;;4979616;28;20052;-72
2022/02/13 05:06:12;;;;;;;5.90;4.32;;;;;;;;;;5012105;28;20133;-71
2022/02/13 05:08:40;;;;;;;7.75;4.60;;;;;;;;;;5013563;28;20052;-72
2022/02/13 05:11:09;;;;;;;8.50;5.45;;;;;;;;;;5013573;28;20389;-72
2022/02/13 05:13:37;;;;;;;5.15;4.65;;;;;;;;;;5013281;28;20048;-72
2022/02/13 05:16:05;;;;;;;7.78;4.78;;;;;;;;;;4995528;28;20060;-72
2022/02/13 05:18:34;;;;;;;7.35;4.50;;;;;;;;;;5012766;28;20048;-70
2022/02/13 05:21:01;;;;;;;4.40;4.00;;;;;;;;;;5012698;28;20045;-72
2022/02/13 05:23:29;;;;;;;7.15;4.57;;;;;;;;;;4995583;28;20042;-72
2022/02/13 05:25:57;;;;;;;7.47;4.28;;;;;;;;;;5013012;28;20065;-71
2022/02/13 05:28:24;;;;;;;5.43;4.40;;;;;;;;;;5013002;28;20046;-72
2022/02/13 05:30:52;;;;;;;5.72;4.60;;;;;;;;;;5012817;28;20057;-72
2022/02/13 05:33:20;;;;;;;5.68;4.65;;;;;;;;;;5013169;28;20049;-70
2022/02/13 05:35:47;;;;;;;5.32;4.35;;;;;;;;;;5012649;28;20064;-70
2022/02/13 05:38:15;;;;;;;6.43;4.82;;;;;;;;;;5012890;28;20045;-71
2022/02/13 05:40:42;;;;;;;6.75;5.00;;;;;;;;;;5012602;28;20457;-71
2022/02/13 05:43:10;;;;;;;5.50;4.50;;;;;;;;;;5012685;28;20518;-71
2022/02/13 05:45:38;;;;;;;7.10;4.78;;;;;;;;;;5012936;28;20042;-71
2022/02/13 05:48:06;;;;;;;5.47;4.95;;;;;;;;;;4995549;28;20038;-72
2022/02/13 05:50:33;;;;;;;7.10;4.85;;;;;;;;;;5012722;28;20369;-72
2022/02/13 05:53:01;;;;;;;6.90;4.85;;;;;;;;;;5012352;28;20413;-70
2022/02/13 05:55:29;;;;;;;7.20;4.82;;;;;;;;;;5012364;28;20038;-72
2022/02/13 05:57:56;;;;;;;6.13;5.00;;;;;;;;;;5012626;28;20041;-73
2022/02/13 06:00:23;;;;;;;6.38;5.13;;;;;;;;;;5012785;28;20049;-70
2022/02/13 06:02:51;;;;;;;7.40;4.70;;;;;;;;;;5012654;28;20041;-71
2022/02/13 06:05:20;;;;;;;7.15;5.22;;;;;;;;;;5012357;28;20077;-72
2022/02/13 06:07:47;;;;;;;7.05;5.07;;;;;;;;;;5012943;28;20046;-71
2022/02/13 06:10:15;;;;;;;7.40;5.30;;;;;;;;;;5012251;28;20120;-70
2022/02/13 06:12:43;;;;;;;8.55;5.25;;;;;;;;;;4994968;28;20445;-71
2022/02/13 06:15:11;;;;;;;6.88;4.70;;;;;;;;;;5012375;28;20108;-70
2022/02/13 06:17:41;;;;;;;5.95;4.55;;;;;;;;;;5013534;28;20153;-72
2022/02/13 06:20:09;;;;;;;10.27;5.15;;;;;;;;;;5016315;28;20046;-72
2022/02/13 06:22:36;;;;;;;6.30;4.55;;;;;;;;;;4998739;28;20049;-73
2022/02/13 06:25:06;;;;;;;7.28;4.72;;;;;;;;;;5016233;28;20042;-70
2022/02/13 06:27:33;;;;;;;6.18;4.38;;;;;;;;;;5016069;28;20100;-72
2022/02/13 06:30:00;;;;;;;5.97;4.00;;;;;;;;;;5016404;28;20369;-71
2022/02/13 06:32:28;;;;;;;7.38;4.32;;;;;;;;;;4999016;28;20438;-71
2022/02/13 06:34:55;;;;;;;7.35;4.53;;;;;;;;;;4998758;28;20057;-70
2022/02/13 06:37:26;;;;;;;6.70;4.53;;;;;;;;;;5022241;28;20045;-71
2022/02/13 06:39:53;;;;;;;7.75;4.40;;;;;;;;;;5028717;28;20046;-70
2022/02/13 06:42:24;;;;;;;9.13;4.57;;;;;;;;;;5035488;28;20042;-71
2022/02/13 06:44:52;;;;;;;6.90;4.28;;;;;;;;;;5035314;28;20124;-72
2022/02/13 06:47:21;;;;;;;7.15;4.10;;;;;;;;;;5035514;28;20096;-70
2022/02/13 06:49:48;;;;;;;6.55;4.60;;;;;;;;;;5035482;28;20053;-72
2022/02/13 06:52:17;;;;;;;6.60;4.40;;;;;;;;;;5035541;28;20051;-70
2022/02/13 06:54:44;;;;;;;7.43;4.70;;;;;;;;;;5034933;28;20045;-71
2022/02/13 06:57:12;;;;;;;10.05;4.85;;;;;;;;;;5034994;28;20060;-72
2022/02/13 06:59:41;;;;;;;11.50;5.80;;;;;;;;;;5035161;28;20140;-72
2022/02/13 07:02:12;;;;;;;7.53;5.70;;;;;;;;;;5035508;28;20044;-72
2022/02/13 07:04:42;;;;;;;8.40;5.05;;;;;;;;;;5035420;28;20038;-72
2022/02/13 07:07:11;;;;;;;9.90;6.22;;;;;;;;;;5034800;28;20045;-70
2022/02/13 07:09:45;;;;;;;12.23;8.20;;;;;;;;;;5035151;28;20037;-71
2022/02/13 07:12:13;;;;;;;9.52;6.40;;;;;;;;;;5035444;28;20050;-72
2022/02/13 07:14:41;;;;;;;9.02;5.50;;;;;;;;;;5034902;28;20046;-72
2022/02/13 07:17:13;;;;;;;7.38;4.75;;;;;;;;;;5034684;28;20469;-73
2022/02/13 07:19:41;;;;;;;6.50;4.65;;;;;;;;;;5034562;28;20378;-73
2022/02/13 07:22:09;;;;;;;7.80;5.40;;;;;;;;;;5017079;28;20045;-73
2022/02/13 07:24:40;;;;;;;9.38;5.30;;;;;;;;;;5035218;28;20417;-73
2022/02/13 07:27:10;;;;;;;8.97;5.63;;;;;;;;;;5034857;28;20052;-71
2022/02/13 07:29:38;;;;;;;11.80;5.88;;;;;;;;;;5034035;28;20067;-73
2022/02/13 07:32:05;;;;;;;8.32;6.30;;;;;;;;;;5017267;28;20409;-71
2022/02/13 07:34:33;;;;;;;11.18;5.78;;;;;;;;;;5034458;28;20045;-71
2022/02/13 07:37:03;;;;;;;11.60;7.53;;;;;;;;;;5035043;28;20053;-70
2022/02/13 07:39:35;;;;;;;14.68;9.02;;;;;;;;;;5034804;28;20045;-71
2022/02/13 07:42:04;;;;;;;12.52;8.48;;;;;;;;;;5016640;28;20492;-73
2022/02/13 07:44:32;;;;;;;12.00;6.00;;;;;;;;;;5034669;28;20048;-73
2022/02/13 07:47:00;;;;;;;9.15;5.63;;;;;;;;;;5018011;28;20194;-73
2022/02/13 07:49:27;;;;;;;8.65;5.72;;;;;;;;;;5030557;28;20046;-70
2022/02/13 07:51:55;;;;;;;9.00;5.45;;;;;;;;;;5018620;28;20042;-73
2022/02/13 07:54:27;;;;;;;9.65;5.63;;;;;;;;;;5018352;28;20417;-73
2022/02/13 07:56:54;;;;;;;8.40;5.32;;;;;;;;;;5023161;28;20039;-73
2022/02/13 07:59:22;;;;;;;9.60;5.55;;;;;;;;;;5024527;28;20196;-73
2022/02/13 08:01:50;;;;;;;6.60;5.03;;;;;;;;;;5016574;28;20038;-73
2022/02/13 08:04:20;;;;;;;6.50;4.82;;;;;;;;;;5007244;28;20037;-71
2022/02/13 08:06:48;;;;;;;6.38;4.72;;;;;;;;;;5013751;28;20041;-72
2022/02/13 08:09:21;;;;;;;7.68;4.57;;;;;;;;;;5014694;28;20038;-71
2022/02/13 08:11:48;;;;;;;4.93;4.10;;;;;;;;;;5014573;28;20038;-72
2022/02/13 08:14:19;;;;;;;7.05;3.70;;;;;;;;;;5013503;28;20041;-71
2022/02/13 08:16:46;;;;;;;5.40;3.95;;;;;;;;;;5022094;28;20048;-72
2022/02/13 08:19:15;;;;;;;4.00;3.60;;;;;;;;;;5016263;28;20038;-70
2022/02/13 08:21:43;;;;;;;6.07;4.22;;;;;;;;;;5013894;28;20121;-72
2022/02/13 08:24:10;;;;;;;5.03;4.30;;;;;;;;;;5013666;28;20077;-71
2022/02/13 08:26:38;;;;;;;5.50;4.18;;;;;;;;;;5014000;28;20042;-70
2022/02/13 08:29:19;;;;;;;6.22;4.53;;;;;;;;;;5006441;28;20557;-72
2022/02/13 08:31:46;;;;;;;7.93;5.07;;;;;;;;;;5014025;28;20046;-72
2022/02/13 08:34:15;;;;;;;7.75;4.95;;;;;;;;;;5013804;28;20561;-73
2022/02/13 08:36:43;;;;;;;4.82;3.55;;;;;;;;;;5013504;28;20113;-73
2022/02/13 08:39:10;;;;;;;5.97;3.50;;;;;;;;;;5013918;28;20056;-71
2022/02/13 08:41:41;;;;;;;7.82;4.00;;;;;;;;;;5013514;28;20048;-71
2022/02/13 08:44:11;;;;;;;6.65;4.75;;;;;;;;;;5013598;28;20505;-71
2022/02/13 08:46:39;;;;;;;10.55;4.72;;;;;;;;;;5013522;28;20409;-71
2022/02/13 08:49:06;;;;;;;7.03;4.85;;;;;;;;;;5013369;28;20049;-72
2022/02/13 08:51:36;;;;;;;7.68;4.80;;;;;;;;;;5013023;28;20041;-70
2022/02/13 08:54:03;;;;;;;8.55;5.25;;;;;;;;;;5012647;28;20095;-72
2022/02/13 08:56:32;;;;;;;5.25;3.88;;;;;;;;;;5013120;28;20610;-72
2022/02/13 08:59:00;;;;;;;8.63;4.93;;;;;;;;;;5013912;28;20056;-71
2022/02/13 09:01:27;;;;;;;8.32;3.30;;;;;;;;;;5013697;28;20049;-69
2022/02/13 09:03:55;;;;;;;6.75;4.18;;;;;;;;;;5013836;28;20394;-72
2022/02/13 09:06:22;;;;;;;5.18;3.67;;;;;;;;;;5012932;28;20038;-71
2022/02/13 09:08:51;;;;;;;6.15;3.72;;;;;;;;;;5013498;28;20041;-71
2022/02/13 09:11:19;;;;;;;6.55;3.45;;;;;;;;;;5026551;28;20041;-72
2022/02/13 09:13:47;;;;;;;6.40;4.28;;;;;;;;;;5033174;28;20041;-70
2022/02/13 09:16:17;;;;;;;8.63;3.92;;;;;;;;;;5032942;28;20053;-70
2022/02/13 09:18:45;;;;;;;8.32;3.38;;;;;;;;;;5032549;28;20042;-70
2022/02/13 09:21:15;;;;;;;4.63;2.80;;;;;;;;;;5033453;28;20047;-73
2022/02/13 09:23:42;;;;;;;3.80;2.40;;;;;;;;;;5033027;28;20052;-71
2022/02/13 09:26:10;;;;;;;6.78;2.55;;;;;;;;;;5033123;28;20068;-73
2022/02/13 09:28:37;;;;;;;3.78;2.33;;;;;;;;;;5033229;28;20133;-71
2022/02/13 09:31:05;;;;;;;2.65;1.80;;;;;;;;;;5032625;28;20053;-70
2022/02/13 09:33:32;;;;;;;4.88;2.20;;;;;;;;;;5032860;28;20045;-72
2022/02/13 09:36:00;;;;;;;4.18;1.80;;;;;;;;;;5029234;28;20485;-71
2022/02/13 09:38:28;;;;;;;2.10;1.73;;;;;;;;;;5032834;28;20053;-72
2022/02/13 09:40:57;;;;;;;4.15;1.65;;;;;;;;;;5033048;28;20476;-72
2022/02/13 09:43:24;;;;;;;3.40;1.85;;;;;;;;;;5032842;28;20075;-72
2022/02/13 09:45:54;;;;;;;3.63;1.98;;;;;;;;;;5032148;28;20151;-70
2022/02/13 09:48:27;;;;;;;4.38;2.00;;;;;;;;;;5032575;28;20038;-72
2022/02/13 09:50:59;;;;;;;5.20;2.22;;;;;;;;;;5029077;28;20398;-71
2022/02/13 09:53:29;;;;;;;3.40;2.38;;;;;;;;;;5034936;28;20045;-71
2022/02/13 09:55:58;;;;;;;4.00;2.00;;;;;;;;;;5019721;28;20052;-72
2022/02/13 09:58:25;;;;;;;3.00;2.38;;;;;;;;;;5123350;23;20056;-72
2022/02/13 10:01:00;;;;;;;3.92;2.20;;;;;;;;;;5052823;28;20447;-73
2022/02/13 10:03:30;;;;;;;3.85;2.58;;;;;;;;;;5072293;28;20053;-70
2022/02/13 10:06:00;;;;;;;3.67;2.20;;;;;;;;;;5076200;28;20037;-73
2022/02/13 10:08:35;;;;;;;3.40;2.10;;;;;;;;;;5076257;28;20044;-73
2022/02/13 10:11:34;;;;;;;3.00;2.17;;;;;;;;;;5076234;28;20506;-73
2022/02/13 10:14:09;;;;;;;2.72;2.20;;;;;;;;;;5076193;28;20044;-74
2022/02/13 10:16:38;;;;;;;4.70;2.08;;;;;;;;;;5058226;28;20404;-71
2022/02/13 10:19:05;;;;;;;2.83;2.63;;;;;;;;;;5057791;28;20471;-73
2022/02/13 10:21:44;;;;;;;3.28;2.03;;;;;;;;;;5076165;28;20044;-71
2022/02/13 10:24:21;;;;;;;3.45;2.00;;;;;;;;;;5076201;28;20381;-73
2022/02/13 10:26:52;;;;;;;4.30;2.63;;;;;;;;;;5055402;28;20041;-71
2022/02/13 10:29:22;;;;;;;2.90;2.22;;;;;;;;;;5057898;28;20117;-73
2022/02/13 10:31:49;;;;;;;3.05;2.45;;;;;;;;;;5075808;28;20041;-73
2022/02/13 10:34:17;;;;;;;3.83;2.50;;;;;;;;;;5075833;28;20052;-73
2022/02/13 10:36:48;;;;;;;3.67;2.10;;;;;;;;;;5075461;28;20044;-71
2022/02/13 10:39:18;;;;;;;6.15;2.25;;;;;;;;;;5075771;28;20048;-73
2022/02/13 10:41:45;;;;;;;5.88;2.22;;;;;;;;;;5074939;28;20119;-72
2022/02/13 10:44:13;;;;;;;1.98;1.60;;;;;;;;;;5075118;28;20037;-72
2022/02/13 10:46:42;;;;;;;2.25;2.05;;;;;;;;;;5075115;28;20048;-73
2022/02/13 10:49:14;;;;;;;2.17;1.90;;;;;;;;;;5062853;28;20515;-72
2022/02/13 10:51:42;;;;;;;3.88;2.20;;;;;;;;;;5053732;28;20070;-74
2022/02/13 10:54:10;;;;;;;4.18;2.00;;;;;;;;;;5054984;28;20068;-69
2022/02/13 10:56:41;;;;;;;3.65;2.10;;;;;;;;;;5054419;28;20072;-71
2022/02/13 10:59:09;;;;;;;3.70;2.40;;;;;;;;;;5053267;28;20057;-70
2022/02/13 11:01:37;;;;;;;9.88;2.90;;;;;;;;;;5035616;28;20053;-69
2022/02/13 11:04:05;;;;;;;3.55;2.03;;;;;;;;;;5053183;28;20041;-71
2022/02/13 11:06:33;;;;;;;2.85;1.80;;;;;;;;;;5054680;28;20427;-71
2022/02/13 11:09:07;;;;;;;5.53;2.35;;;;;;;;;;5054815;28;20124;-71
2022/02/13 11:11:51;;;;;;;3.50;2.30;;;;;;;;;;5055030;28;20045;-69
2022/02/13 11:14:26;;;;;;;5.15;2.30;;;;;;;;;;5054876;28;20045;-71
2022/02/13 11:16:54;;;;;;;2.97;2.30;;;;;;;;;;5036987;28;20052;-71
2022/02/13 11:19:22;;;;;;;3.15;2.10;;;;;;;;;;5037292;28;20133;-72
2022/02/13 11:21:50;;;;;;;2.95;2.00;;;;;;;;;;5036911;28;20041;-72
2022/02/13 11:24:24;;;;;;;2.92;1.88;;;;;;;;;;5054894;28;20037;-71
2022/02/13 11:26:53;;;;;;;2.30;2.00;;;;;;;;;;5054749;28;20051;-71
2022/02/13 11:29:20;;;;;;;5.43;2.40;;;;;;;;;;5054487;28;20747;-71
2022/02/13 11:31:55;;;;;;;3.00;2.28;;;;;;;;;;5054567;28;20443;-71
2022/02/13 11:34:23;;;;;;;6.45;2.10;;;;;;;;;;5054587;28;20071;-72
2022/02/13 11:37:15;;;;;;;3.47;1.77;;;;;;;;;;5054417;28;20045;-73
2022/02/13 11:39:48;;;;;;;3.58;2.55;;;;;;;;;;5043328;28;20053;-71
2022/02/13 11:42:19;;;;;;;5.93;2.25;;;;;;;;;;5053901;28;20033;-71
2022/02/13 11:44:50;;;;;;;3.55;2.58;;;;;;;;;;5036408;28;20033;-72
2022/02/13 11:47:35;;;;;;;4.20;2.30;;;;;;;;;;5054281;28;20041;-71
2022/02/13 11:50:14;;;;;;;4.00;2.40;;;;;;;;;;5054579;28;20067;-71
2022/02/13 11:52:41;;;;;;;5.43;2.60;;;;;;;;;;5054340;28;20091;-70
2022/02/13 11:55:16;;;;;;;7.25;2.50;;;;;;;;;;5054116;28;20415;-71
2022/02/13 11:57:58;;;;;;;4.40;1.85;;;;;;;;;;5054242;28;20132;-70
2022/02/13 12:00:45;;;;;;;4.40;1.70;;;;;;;;;;5054220;28;20189;-71
2022/02/13 12:03:17;;;;;;;5.40;2.72;;;;;;;;;;5053094;28;20040;-71
2022/02/13 12:06:13;;;;;;;4.55;1.90;;;;;;;;;;5053431;28;20088;-72
2022/02/13 12:08:42;;;;;;;2.15;1.95;;;;;;;;;;5054092;28;20045;-72
2022/02/13 12:11:10;;;;;;;5.30;1.70;;;;;;;;;;5054160;28;20083;-72
2022/02/13 12:13:41;;;;;;;5.00;1.70;;;;;;;;;;5053754;28;20131;-70
2022/02/13 12:16:09;;;;;;;4.22;1.77;;;;;;;;;;5053328;28;20404;-69
2022/02/13 12:18:36;;;;;;;4.15;1.77;;;;;;;;;;5052958;28;20056;-68
2022/02/13 12:21:06;;;;;;;4.60;1.90;;;;;;;;;;5052418;28;20048;-70
2022/02/13 12:23:34;;;;;;;5.55;1.92;;;;;;;;;;5046031;28;20033;-73
2022/02/13 12:26:02;;;;;;;4.28;2.60;;;;;;;;;;5044517;28;20037;-72
2022/02/13 12:28:33;;;;;;;3.53;1.77;;;;;;;;;;5035452;28;20037;-69
2022/02/13 12:31:03;;;;;;;3.40;1.70;;;;;;;;;;5032918;28;20037;-68
2022/02/13 12:33:39;;;;;;;5.50;1.75;;;;;;;;;;5033444;28;20549;-71
2022/02/13 12:36:11;;;;;;;3.90;1.60;;;;;;;;;;5033000;28;20033;-70
2022/02/13 12:38:38;;;;;;;2.90;1.90;;;;;;;;;;5037246;28;20053;-69
2022/02/13 12:41:06;;;;;;;5.35;2.10;;;;;;;;;;5032953;28;20044;-69
2022/02/13 12:43:33;;;;;;;2.08;1.40;;;;;;;;;;5020423;28;20042;-71
2022/02/13 12:46:04;;;;;;;5.47;2.30;;;;;;;;;;5034716;28;20131;-69
2022/02/13 12:48:39;;;;;;;5.95;1.95;;;;;;;;;;5019877;28;20038;-72
2022/02/13 12:51:06;;;;;;;4.90;1.88;;;;;;;;;;5038089;28;20132;-72
2022/02/13 12:53:35;;;;;;;2.50;1.45;;;;;;;;;;5026057;28;20045;-71
2022/02/13 12:56:03;;;;;;;6.38;1.60;;;;;;;;;;5042842;28;20063;-72
2022/02/13 12:58:33;;;;;;;3.70;1.65;;;;;;;;;;5052892;28;20053;-72
2022/02/13 13:01:02;;;;;;;2.90;1.60;;;;;;;;;;5053379;28;20067;-71
2022/02/13 13:03:39;;;;;;;3.17;1.63;;;;;;;;;;5033468;28;20045;-70
2022/02/13 13:06:06;;;;;;;8.80;2.28;;;;;;;;;;5032526;28;20045;-72
2022/02/13 13:08:40;;;;;;;4.57;1.90;;;;;;;;;;5033245;28;20099;-70
2022/02/13 13:11:09;;;;;;;3.92;1.77;;;;;;;;;;5032812;28;20389;-70
2022/02/13 13:13:38;;;;;;;4.35;1.80;;;;;;;;;;5033159;28;20041;-72
2022/02/13 13:16:07;;;;;;;5.63;2.28;;;;;;;;;;5015059;28;20056;-71
2022/02/13 13:18:39;;;;;;;5.70;2.05;;;;;;;;;;5033045;28;20038;-72
2022/02/13 13:21:13;;;;;;;4.35;1.70;;;;;;;;;;5033117;28;20396;-69
2022/02/13 13:24:04;;;;;;;5.38;1.73;;;;;;;;;;5033080;28;20045;-71
2022/02/13 13:26:33;;;;;;;3.38;1.88;;;;;;;;;;5039180;28;20044;-71
2022/02/13 13:29:24;;;;;;;5.10;1.60;;;;;;;;;;5041536;28;20030;-71
2022/02/13 13:32:03;;;;;;;3.45;1.70;;;;;;;;;;5038215;28;20060;-71
2022/02/13 13:34:35;;;;;;;3.40;1.60;;;;;;;;;;5052621;28;20045;-71
2022/02/13 13:37:21;;;;;;;4.32;1.67;;;;;;;;;;5052470;28;20511;-70
2022/02/13 13:39:59;;;;;;;4.88;1.90;;;;;;;;;;5051940;28;20131;-69
2022/02/13 13:42:30;;;;;;;4.15;2.10;;;;;;;;;;5047638;28;20625;-71
2022/02/13 13:45:02;;;;;;;4.65;2.30;;;;;;;;;;5043032;28;20158;-71
2022/02/13 13:47:34;;;;;;;3.25;1.80;;;;;;;;;;5026043;28;20033;-71
2022/02/13 13:50:01;;;;;;;2.63;1.73;;;;;;;;;;5042581;28;20041;-69
2022/02/13 13:52:29;;;;;;;3.75;1.95;;;;;;;;;;5043760;28;20048;-71
2022/02/13 13:54:57;;;;;;;5.70;2.00;;;;;;;;;;5051435;28;20041;-71
2022/02/13 13:57:24;;;;;;;3.38;1.80;;;;;;;;;;5038561;28;20081;-71
2022/02/13 13:59:53;;;;;;;5.78;1.77;;;;;;;;;;5052268;28;20057;-69
2022/02/13 14:02:22;;;;;;;5.32;2.00;;;;;;;;;;5034068;28;20615;-72
2022/02/13 14:04:51;;;;;;;3.83;2.15;;;;;;;;;;5044478;28;20051;-72
2022/02/13 14:07:19;;;;;;;7.00;2.20;;;;;;;;;;5039846;28;20047;-71
2022/02/13 14:09:47;;;;;;;6.53;2.78;;;;;;;;;;5020131;28;20049;-73
2022/02/13 14:12:18;;;;;;;9.32;2.08;;;;;;;;;;5040288;28;20111;-70
2022/02/13 14:14:47;;;;;;;4.43;2.10;;;;;;;;;;5041939;28;20127;-72
2022/02/13 14:17:17;;;;;;;4.05;2.20;;;;;;;;;;5044541;28;20072;-71
2022/02/13 14:19:46;;;;;;;5.10;2.22;;;;;;;;;;5042133;28;20038;-71
2022/02/13 14:22:14;;;;;;;4.68;2.13;;;;;;;;;;5006996;28;20053;-71
2022/02/13 14:24:42;;;;;;;7.47;2.35;;;;;;;;;;5046006;28;20051;-70
2022/02/13 14:27:09;;;;;;;6.50;2.65;;;;;;;;;;5051960;28;20045;-72
2022/02/13 14:29:37;;;;;;;5.55;2.53;;;;;;;;;;5051931;28;20409;-72
2022/02/13 14:32:05;;;;;;;5.10;2.35;;;;;;;;;;5050085;28;20412;-72
2022/02/13 14:34:33;;;;;;;4.57;2.50;;;;;;;;;;5031931;28;20052;-71
2022/02/13 14:37:01;;;;;;;4.82;2.92;;;;;;;;;;5031837;28;20049;-73
2022/02/13 14:39:29;;;;;;;4.90;2.58;;;;;;;;;;5034201;28;20095;-72
2022/02/13 14:41:57;;;;;;;8.43;2.75;;;;;;;;;;5035092;28;20644;-73
2022/02/13 14:44:27;;;;;;;6.18;2.55;;;;;;;;;;5035721;28;20045;-78
2022/02/13 14:46:58;;;;;;;4.05;2.55;;;;;;;;;;5031388;28;20049;-73
2022/02/13 14:49:26;;;;;;;5.97;2.65;;;;;;;;;;5055477;28;20084;-72
2022/02/13 14:51:54;;;;;;;5.38;2.90;;;;;;;;;;5055642;28;20044;-72
2022/02/13 14:54:30;;;;;;;3.22;2.35;;;;;;;;;;5037658;28;20052;-72
2022/02/13 14:56:57;;;;;;;3.90;2.60;;;;;;;;;;5055176;28;20072;-71